sensor_id;sensor_type;location;lat;lon;timestamp;P1;durP1;ratioP1;P2;durP2;ratioP2
10045;SDS011;5063;50.878;4.742;2023-04-10T00:01:38;8.57;;;5.97;;
10045;SDS011;5063;50.878;4.742;2023-04-10T00:04:04;7.87;;;6.50;;
10045;SDS011;5063;50.878;4.742;2023-04-10T00:06:31;8.53;;;7.00;;
10045;SDS011;5063;50.878;4.742;2023-04-10T00:08:57;7.43;;;6.57;;
10045;SDS011;5063;50.878;4.742;2023-04-10T00:11:23;8.23;;;6.27;;
10045;SDS011;5063;50.878;4.742;2023-04-10T00:13:50;8.57;;;6.60;;
10045;SDS011;5063;50.878;4.742;2023-04-10T00:16:16;6.97;;;5.97;;
10045;SDS011;5063;50.878;4.742;2023-04-10T00:18:41;7.73;;;5.87;;
10045;SDS011;5063;50.878;4.742;2023-04-10T00:21:07;7.00;;;5.70;;
10045;SDS011;5063;50.878;4.742;2023-04-10T00:23:33;6.47;;;5.80;;
10045;SDS011;5063;50.878;4.742;2023-04-10T00:26:01;7.33;;;6.63;;
10045;SDS011;5063;50.878;4.742;2023-04-10T00:28:27;8.40;;;6.30;;
10045;SDS011;5063;50.878;4.742;2023-04-10T00:30:53;9.27;;;6.23;;
10045;SDS011;5063;50.878;4.742;2023-04-10T00:33:19;7.60;;;6.50;;
10045;SDS011;5063;50.878;4.742;2023-04-10T00:35:45;7.17;;;6.03;;
10045;SDS011;5063;50.878;4.742;2023-04-10T00:38:11;8.10;;;6.20;;
10045;SDS011;5063;50.878;4.742;2023-04-10T00:40:37;6.37;;;5.50;;
10045;SDS011;5063;50.878;4.742;2023-04-10T00:43:02;6.90;;;6.03;;
10045;SDS011;5063;50.878;4.742;2023-04-10T00:45:28;5.93;;;5.37;;
10045;SDS011;5063;50.878;4.742;2023-04-10T00:47:54;7.17;;;6.00;;
10045;SDS011;5063;50.878;4.742;2023-04-10T00:50:21;7.20;;;5.70;;
10045;SDS011;5063;50.878;4.742;2023-04-10T00:52:47;8.03;;;5.57;;
10045;SDS011;5063;50.878;4.742;2023-04-10T00:55:13;7.07;;;5.70;;
10045;SDS011;5063;50.878;4.742;2023-04-10T00:57:43;6.00;;;5.17;;
10045;SDS011;5063;50.878;4.742;2023-04-10T01:00:11;6.10;;;5.50;;
10045;SDS011;5063;50.878;4.742;2023-04-10T01:02:38;5.87;;;5.27;;
10045;SDS011;5063;50.878;4.742;2023-04-10T01:05:04;6.03;;;5.43;;
10045;SDS011;5063;50.878;4.742;2023-04-10T01:07:57;6.13;;;5.53;;
10045;SDS011;5063;50.878;4.742;2023-04-10T01:10:39;7.20;;;6.30;;
10045;SDS011;5063;50.878;4.742;2023-04-10T01:15:47;6.17;;;5.33;;
10045;SDS011;5063;50.878;4.742;2023-04-10T01:18:25;6.10;;;5.50;;
10045;SDS011;5063;50.878;4.742;2023-04-10T01:20:58;7.00;;;6.27;;
10045;SDS011;5063;50.878;4.742;2023-04-10T01:26:48;8.03;;;6.20;;
10045;SDS011;5063;50.878;4.742;2023-04-10T01:29:20;7.93;;;5.77;;
10045;SDS011;5063;50.878;4.742;2023-04-10T01:31:51;7.27;;;5.53;;
10045;SDS011;5063;50.878;4.742;2023-04-10T01:34:23;6.60;;;6.00;;
10045;SDS011;5063;50.878;4.742;2023-04-10T01:37:00;6.93;;;6.03;;
10045;SDS011;5063;50.878;4.742;2023-04-10T01:39:29;6.90;;;6.30;;
10045;SDS011;5063;50.878;4.742;2023-04-10T01:42:00;7.47;;;5.63;;
10045;SDS011;5063;50.878;4.742;2023-04-10T01:44:28;6.57;;;5.80;;
10045;SDS011;5063;50.878;4.742;2023-04-10T01:46:55;8.47;;;6.07;;
10045;SDS011;5063;50.878;4.742;2023-04-10T01:49:23;7.77;;;6.10;;
10045;SDS011;5063;50.878;4.742;2023-04-10T01:51:51;6.70;;;6.00;;
10045;SDS011;5063;50.878;4.742;2023-04-10T01:54:19;7.53;;;6.17;;
10045;SDS011;5063;50.878;4.742;2023-04-10T01:56:45;7.80;;;6.27;;
10045;SDS011;5063;50.878;4.742;2023-04-10T01:59:11;6.53;;;5.63;;
10045;SDS011;5063;50.878;4.742;2023-04-10T02:01:37;5.93;;;5.33;;
10045;SDS011;5063;50.878;4.742;2023-04-10T02:04:02;6.37;;;5.70;;
10045;SDS011;5063;50.878;4.742;2023-04-10T02:06:34;6.10;;;5.50;;
10045;SDS011;5063;50.878;4.742;2023-04-10T02:09:09;6.63;;;4.93;;
10045;SDS011;5063;50.878;4.742;2023-04-10T02:11:46;6.47;;;5.77;;
10045;SDS011;5063;50.878;4.742;2023-04-10T02:14:17;6.20;;;5.30;;
10045;SDS011;5063;50.878;4.742;2023-04-10T02:16:44;8.37;;;6.13;;
10045;SDS011;5063;50.878;4.742;2023-04-10T02:19:11;7.30;;;5.87;;
10045;SDS011;5063;50.878;4.742;2023-04-10T02:21:37;6.17;;;5.33;;
10045;SDS011;5063;50.878;4.742;2023-04-10T02:24:06;7.27;;;5.63;;
10045;SDS011;5063;50.878;4.742;2023-04-10T02:26:47;6.40;;;5.70;;
10045;SDS011;5063;50.878;4.742;2023-04-10T02:29:15;6.30;;;5.50;;
10045;SDS011;5063;50.878;4.742;2023-04-10T02:31:41;6.63;;;5.43;;
10045;SDS011;5063;50.878;4.742;2023-04-10T02:34:08;5.57;;;4.97;;
10045;SDS011;5063;50.878;4.742;2023-04-10T02:36:37;6.27;;;5.23;;
10045;SDS011;5063;50.878;4.742;2023-04-10T02:39:04;7.23;;;5.73;;
10045;SDS011;5063;50.878;4.742;2023-04-10T02:41:30;6.53;;;5.60;;
10045;SDS011;5063;50.878;4.742;2023-04-10T02:43:56;6.23;;;5.23;;
10045;SDS011;5063;50.878;4.742;2023-04-10T02:46:22;7.23;;;6.10;;
10045;SDS011;5063;50.878;4.742;2023-04-10T02:48:48;7.63;;;5.80;;
10045;SDS011;5063;50.878;4.742;2023-04-10T02:51:13;6.13;;;5.43;;
10045;SDS011;5063;50.878;4.742;2023-04-10T02:53:39;8.07;;;6.07;;
10045;SDS011;5063;50.878;4.742;2023-04-10T02:56:05;7.93;;;6.23;;
10045;SDS011;5063;50.878;4.742;2023-04-10T02:58:32;6.13;;;5.30;;
10045;SDS011;5063;50.878;4.742;2023-04-10T03:00:58;6.43;;;5.70;;
10045;SDS011;5063;50.878;4.742;2023-04-10T03:03:23;7.23;;;6.03;;
10045;SDS011;5063;50.878;4.742;2023-04-10T03:05:49;5.90;;;5.30;;
10045;SDS011;5063;50.878;4.742;2023-04-10T03:08:15;7.27;;;6.30;;
10045;SDS011;5063;50.878;4.742;2023-04-10T03:10:45;5.87;;;5.27;;
10045;SDS011;5063;50.878;4.742;2023-04-10T03:13:13;6.20;;;5.60;;
10045;SDS011;5063;50.878;4.742;2023-04-10T03:15:39;8.27;;;5.87;;
10045;SDS011;5063;50.878;4.742;2023-04-10T03:18:05;6.47;;;4.97;;
10045;SDS011;5063;50.878;4.742;2023-04-10T03:20:31;8.57;;;6.07;;
10045;SDS011;5063;50.878;4.742;2023-04-10T03:23:00;6.70;;;5.97;;
10045;SDS011;5063;50.878;4.742;2023-04-10T03:25:27;7.37;;;5.57;;
10045;SDS011;5063;50.878;4.742;2023-04-10T03:27:53;6.43;;;5.77;;
10045;SDS011;5063;50.878;4.742;2023-04-10T03:30:18;6.97;;;6.27;;
10045;SDS011;5063;50.878;4.742;2023-04-10T03:32:44;6.50;;;5.83;;
10045;SDS011;5063;50.878;4.742;2023-04-10T03:35:10;9.10;;;5.97;;
10045;SDS011;5063;50.878;4.742;2023-04-10T03:37:36;8.20;;;5.83;;
10045;SDS011;5063;50.878;4.742;2023-04-10T03:40:06;8.13;;;6.30;;
10045;SDS011;5063;50.878;4.742;2023-04-10T03:42:33;6.80;;;6.10;;
10045;SDS011;5063;50.878;4.742;2023-04-10T03:44:59;7.60;;;6.30;;
10045;SDS011;5063;50.878;4.742;2023-04-10T03:47:32;7.90;;;5.80;;
10045;SDS011;5063;50.878;4.742;2023-04-10T03:49:58;7.50;;;6.37;;
10045;SDS011;5063;50.878;4.742;2023-04-10T03:52:24;7.20;;;5.93;;
10045;SDS011;5063;50.878;4.742;2023-04-10T03:54:52;8.73;;;6.60;;
10045;SDS011;5063;50.878;4.742;2023-04-10T03:57:18;6.60;;;5.77;;
10045;SDS011;5063;50.878;4.742;2023-04-10T03:59:48;7.30;;;6.03;;
10045;SDS011;5063;50.878;4.742;2023-04-10T04:02:14;6.10;;;5.37;;
10045;SDS011;5063;50.878;4.742;2023-04-10T04:04:40;6.10;;;5.50;;
10045;SDS011;5063;50.878;4.742;2023-04-10T04:07:05;8.70;;;6.00;;
10045;SDS011;5063;50.878;4.742;2023-04-10T04:09:31;6.73;;;6.03;;
10045;SDS011;5063;50.878;4.742;2023-04-10T04:11:57;7.90;;;6.03;;
10045;SDS011;5063;50.878;4.742;2023-04-10T04:14:23;7.83;;;5.90;;
10045;SDS011;5063;50.878;4.742;2023-04-10T04:16:48;7.30;;;5.73;;
10045;SDS011;5063;50.878;4.742;2023-04-10T04:19:14;7.50;;;6.17;;
10045;SDS011;5063;50.878;4.742;2023-04-10T04:21:40;6.37;;;5.77;;
10045;SDS011;5063;50.878;4.742;2023-04-10T04:24:06;7.43;;;5.93;;
10045;SDS011;5063;50.878;4.742;2023-04-10T04:26:32;6.93;;;6.17;;
10045;SDS011;5063;50.878;4.742;2023-04-10T04:28:58;6.53;;;5.87;;
10045;SDS011;5063;50.878;4.742;2023-04-10T04:31:23;9.60;;;5.60;;
10045;SDS011;5063;50.878;4.742;2023-04-10T04:33:49;6.77;;;5.77;;
10045;SDS011;5063;50.878;4.742;2023-04-10T04:36:15;6.60;;;5.80;;
10045;SDS011;5063;50.878;4.742;2023-04-10T04:38:41;6.50;;;5.60;;
10045;SDS011;5063;50.878;4.742;2023-04-10T04:41:07;6.53;;;5.83;;
10045;SDS011;5063;50.878;4.742;2023-04-10T04:43:33;6.77;;;5.97;;
10045;SDS011;5063;50.878;4.742;2023-04-10T04:45:58;7.20;;;5.83;;
10045;SDS011;5063;50.878;4.742;2023-04-10T04:48:24;7.50;;;6.33;;
10045;SDS011;5063;50.878;4.742;2023-04-10T04:50:50;7.77;;;6.37;;
10045;SDS011;5063;50.878;4.742;2023-04-10T04:53:16;6.90;;;5.60;;
10045;SDS011;5063;50.878;4.742;2023-04-10T04:55:41;7.00;;;5.50;;
10045;SDS011;5063;50.878;4.742;2023-04-10T04:58:07;8.30;;;6.50;;
10045;SDS011;5063;50.878;4.742;2023-04-10T05:00:33;8.80;;;6.13;;
10045;SDS011;5063;50.878;4.742;2023-04-10T05:02:58;7.63;;;6.20;;
10045;SDS011;5063;50.878;4.742;2023-04-10T05:05:24;7.80;;;6.00;;
10045;SDS011;5063;50.878;4.742;2023-04-10T05:07:50;7.53;;;6.03;;
10045;SDS011;5063;50.878;4.742;2023-04-10T05:10:16;7.63;;;6.47;;
10045;SDS011;5063;50.878;4.742;2023-04-10T05:12:42;8.07;;;6.23;;
10045;SDS011;5063;50.878;4.742;2023-04-10T05:15:07;9.00;;;5.97;;
10045;SDS011;5063;50.878;4.742;2023-04-10T05:17:33;9.60;;;6.93;;
10045;SDS011;5063;50.878;4.742;2023-04-10T05:20:00;8.13;;;6.50;;
10045;SDS011;5063;50.878;4.742;2023-04-10T05:22:25;6.70;;;5.50;;
10045;SDS011;5063;50.878;4.742;2023-04-10T05:24:52;7.57;;;6.33;;
10045;SDS011;5063;50.878;4.742;2023-04-10T05:27:19;6.77;;;5.97;;
10045;SDS011;5063;50.878;4.742;2023-04-10T05:29:45;7.87;;;6.43;;
10045;SDS011;5063;50.878;4.742;2023-04-10T05:32:12;7.07;;;5.83;;
10045;SDS011;5063;50.878;4.742;2023-04-10T05:34:38;10.13;;;6.57;;
10045;SDS011;5063;50.878;4.742;2023-04-10T05:37:04;6.53;;;5.87;;
10045;SDS011;5063;50.878;4.742;2023-04-10T05:39:30;7.40;;;6.20;;
10045;SDS011;5063;50.878;4.742;2023-04-10T05:41:56;8.57;;;6.13;;
10045;SDS011;5063;50.878;4.742;2023-04-10T05:44:22;7.00;;;6.30;;
10045;SDS011;5063;50.878;4.742;2023-04-10T05:46:48;6.40;;;5.70;;
10045;SDS011;5063;50.878;4.742;2023-04-10T05:49:14;6.53;;;5.77;;
10045;SDS011;5063;50.878;4.742;2023-04-10T05:51:41;6.60;;;5.90;;
10045;SDS011;5063;50.878;4.742;2023-04-10T05:54:06;7.10;;;5.87;;
10045;SDS011;5063;50.878;4.742;2023-04-10T05:56:32;7.07;;;5.80;;
10045;SDS011;5063;50.878;4.742;2023-04-10T05:58:58;6.87;;;6.17;;
10045;SDS011;5063;50.878;4.742;2023-04-10T06:01:24;7.70;;;6.13;;
10045;SDS011;5063;50.878;4.742;2023-04-10T06:03:50;6.93;;;5.50;;
10045;SDS011;5063;50.878;4.742;2023-04-10T06:06:16;7.17;;;5.63;;
10045;SDS011;5063;50.878;4.742;2023-04-10T06:08:42;7.33;;;6.07;;
10045;SDS011;5063;50.878;4.742;2023-04-10T06:11:07;7.00;;;5.70;;
10045;SDS011;5063;50.878;4.742;2023-04-10T06:13:33;9.17;;;6.37;;
10045;SDS011;5063;50.878;4.742;2023-04-10T06:15:59;6.53;;;5.87;;
10045;SDS011;5063;50.878;4.742;2023-04-10T06:18:25;7.80;;;6.23;;
10045;SDS011;5063;50.878;4.742;2023-04-10T06:20:50;6.57;;;5.53;;
10045;SDS011;5063;50.878;4.742;2023-04-10T06:23:16;5.93;;;5.27;;
10045;SDS011;5063;50.878;4.742;2023-04-10T06:25:42;8.27;;;5.57;;
10045;SDS011;5063;50.878;4.742;2023-04-10T06:28:08;7.07;;;5.73;;
10045;SDS011;5063;50.878;4.742;2023-04-10T06:30:34;7.20;;;5.73;;
10045;SDS011;5063;50.878;4.742;2023-04-10T06:33:01;8.93;;;5.70;;
10045;SDS011;5063;50.878;4.742;2023-04-10T06:35:27;7.23;;;5.67;;
10045;SDS011;5063;50.878;4.742;2023-04-10T06:37:52;6.23;;;5.47;;
10045;SDS011;5063;50.878;4.742;2023-04-10T06:40:18;6.80;;;5.17;;
10045;SDS011;5063;50.878;4.742;2023-04-10T06:42:44;7.30;;;5.80;;
10045;SDS011;5063;50.878;4.742;2023-04-10T06:45:10;6.53;;;5.77;;
10045;SDS011;5063;50.878;4.742;2023-04-10T06:47:35;6.00;;;5.40;;
10045;SDS011;5063;50.878;4.742;2023-04-10T06:50:01;6.30;;;5.70;;
10045;SDS011;5063;50.878;4.742;2023-04-10T06:52:27;6.43;;;5.37;;
10045;SDS011;5063;50.878;4.742;2023-04-10T06:54:53;7.07;;;5.90;;
10045;SDS011;5063;50.878;4.742;2023-04-10T06:57:18;5.83;;;5.30;;
10045;SDS011;5063;50.878;4.742;2023-04-10T06:59:44;5.93;;;5.33;;
10045;SDS011;5063;50.878;4.742;2023-04-10T07:02:10;7.20;;;5.97;;
10045;SDS011;5063;50.878;4.742;2023-04-10T07:04:36;6.20;;;5.33;;
10045;SDS011;5063;50.878;4.742;2023-04-10T07:07:02;6.93;;;5.57;;
10045;SDS011;5063;50.878;4.742;2023-04-10T07:09:28;7.47;;;5.17;;
10045;SDS011;5063;50.878;4.742;2023-04-10T07:11:54;6.63;;;5.30;;
10045;SDS011;5063;50.878;4.742;2023-04-10T07:14:20;5.57;;;4.90;;
10045;SDS011;5063;50.878;4.742;2023-04-10T07:16:47;6.20;;;5.47;;
10045;SDS011;5063;50.878;4.742;2023-04-10T07:19:13;6.87;;;5.47;;
10045;SDS011;5063;50.878;4.742;2023-04-10T07:21:39;7.63;;;5.93;;
10045;SDS011;5063;50.878;4.742;2023-04-10T07:24:05;6.57;;;5.63;;
10045;SDS011;5063;50.878;4.742;2023-04-10T07:26:31;5.97;;;5.37;;
10045;SDS011;5063;50.878;4.742;2023-04-10T07:28:57;7.77;;;5.00;;
10045;SDS011;5063;50.878;4.742;2023-04-10T07:31:23;6.17;;;5.43;;
10045;SDS011;5063;50.878;4.742;2023-04-10T07:33:49;6.97;;;5.17;;
10045;SDS011;5063;50.878;4.742;2023-04-10T07:36:15;6.90;;;5.60;;
10045;SDS011;5063;50.878;4.742;2023-04-10T07:38:40;5.83;;;5.20;;
10045;SDS011;5063;50.878;4.742;2023-04-10T07:41:06;5.53;;;4.93;;
10045;SDS011;5063;50.878;4.742;2023-04-10T07:43:32;8.33;;;5.53;;
10045;SDS011;5063;50.878;4.742;2023-04-10T07:45:58;7.33;;;5.47;;
10045;SDS011;5063;50.878;4.742;2023-04-10T07:48:23;5.53;;;4.97;;
10045;SDS011;5063;50.878;4.742;2023-04-10T07:50:49;5.33;;;4.63;;
10045;SDS011;5063;50.878;4.742;2023-04-10T07:53:15;6.73;;;5.17;;
10045;SDS011;5063;50.878;4.742;2023-04-10T07:55:42;6.33;;;5.30;;
10045;SDS011;5063;50.878;4.742;2023-04-10T07:58:09;6.27;;;4.97;;
10045;SDS011;5063;50.878;4.742;2023-04-10T08:00:35;5.73;;;5.13;;
10045;SDS011;5063;50.878;4.742;2023-04-10T08:03:01;6.03;;;5.43;;
10045;SDS011;5063;50.878;4.742;2023-04-10T08:05:28;6.00;;;4.83;;
10045;SDS011;5063;50.878;4.742;2023-04-10T08:07:54;5.20;;;4.70;;
10045;SDS011;5063;50.878;4.742;2023-04-10T08:10:19;5.63;;;5.00;;
10045;SDS011;5063;50.878;4.742;2023-04-10T08:12:45;5.80;;;5.20;;
10045;SDS011;5063;50.878;4.742;2023-04-10T08:15:11;8.13;;;5.20;;
10045;SDS011;5063;50.878;4.742;2023-04-10T08:17:36;5.90;;;5.00;;
10045;SDS011;5063;50.878;4.742;2023-04-10T08:20:02;5.83;;;5.00;;
10045;SDS011;5063;50.878;4.742;2023-04-10T08:22:29;5.13;;;4.63;;
10045;SDS011;5063;50.878;4.742;2023-04-10T08:24:55;5.67;;;5.07;;
10045;SDS011;5063;50.878;4.742;2023-04-10T08:27:20;5.60;;;4.83;;
10045;SDS011;5063;50.878;4.742;2023-04-10T08:29:46;7.83;;;5.30;;
10045;SDS011;5063;50.878;4.742;2023-04-10T08:32:12;5.73;;;5.20;;
10045;SDS011;5063;50.878;4.742;2023-04-10T08:34:38;5.93;;;5.03;;
10045;SDS011;5063;50.878;4.742;2023-04-10T08:37:04;6.87;;;4.80;;
10045;SDS011;5063;50.878;4.742;2023-04-10T08:39:30;5.67;;;4.93;;
10045;SDS011;5063;50.878;4.742;2023-04-10T08:41:59;5.47;;;4.83;;
10045;SDS011;5063;50.878;4.742;2023-04-10T08:44:24;4.93;;;4.43;;
10045;SDS011;5063;50.878;4.742;2023-04-10T08:46:50;5.10;;;4.57;;
10045;SDS011;5063;50.878;4.742;2023-04-10T08:49:22;4.70;;;4.30;;
10045;SDS011;5063;50.878;4.742;2023-04-10T08:51:55;5.70;;;4.97;;
10045;SDS011;5063;50.878;4.742;2023-04-10T08:54:26;5.60;;;5.00;;
10045;SDS011;5063;50.878;4.742;2023-04-10T08:56:53;5.23;;;4.73;;
10045;SDS011;5063;50.878;4.742;2023-04-10T08:59:21;4.70;;;4.30;;
10045;SDS011;5063;50.878;4.742;2023-04-10T09:01:47;5.27;;;4.77;;
10045;SDS011;5063;50.878;4.742;2023-04-10T09:04:13;7.03;;;4.87;;
10045;SDS011;5063;50.878;4.742;2023-04-10T09:06:41;5.03;;;4.53;;
10045;SDS011;5063;50.878;4.742;2023-04-10T09:09:06;5.27;;;4.40;;
10045;SDS011;5063;50.878;4.742;2023-04-10T09:14:20;4.63;;;4.23;;
10045;SDS011;5063;50.878;4.742;2023-04-10T09:16:47;5.20;;;4.50;;
10045;SDS011;5063;50.878;4.742;2023-04-10T09:19:13;5.00;;;4.50;;
10045;SDS011;5063;50.878;4.742;2023-04-10T09:21:57;6.00;;;4.67;;
10045;SDS011;5063;50.878;4.742;2023-04-10T09:24:23;6.77;;;4.90;;
10045;SDS011;5063;50.878;4.742;2023-04-10T09:26:49;5.47;;;4.90;;
10045;SDS011;5063;50.878;4.742;2023-04-10T09:29:15;5.00;;;4.50;;
10045;SDS011;5063;50.878;4.742;2023-04-10T09:31:41;6.57;;;4.53;;
10045;SDS011;5063;50.878;4.742;2023-04-10T09:34:17;5.13;;;4.50;;
10045;SDS011;5063;50.878;4.742;2023-04-10T09:36:53;4.73;;;4.20;;
10045;SDS011;5063;50.878;4.742;2023-04-10T09:42:05;7.37;;;4.47;;
10045;SDS011;5063;50.878;4.742;2023-04-10T09:44:35;4.67;;;4.27;;
10045;SDS011;5063;50.878;4.742;2023-04-10T09:47:19;4.80;;;4.40;;
10045;SDS011;5063;50.878;4.742;2023-04-10T09:49:51;5.17;;;4.67;;
10045;SDS011;5063;50.878;4.742;2023-04-10T09:52:23;4.40;;;4.00;;
10045;SDS011;5063;50.878;4.742;2023-04-10T09:54:57;5.53;;;4.70;;
10045;SDS011;5063;50.878;4.742;2023-04-10T09:57:25;4.93;;;4.43;;
10045;SDS011;5063;50.878;4.742;2023-04-10T09:59:57;5.20;;;4.40;;
10045;SDS011;5063;50.878;4.742;2023-04-10T10:02:25;4.60;;;4.20;;
10045;SDS011;5063;50.878;4.742;2023-04-10T10:04:54;5.30;;;4.80;;
10045;SDS011;5063;50.878;4.742;2023-04-10T10:07:22;4.50;;;4.03;;
10045;SDS011;5063;50.878;4.742;2023-04-10T10:09:49;4.70;;;4.30;;
10045;SDS011;5063;50.878;4.742;2023-04-10T10:12:18;4.30;;;3.90;;
10045;SDS011;5063;50.878;4.742;2023-04-10T10:17:23;4.27;;;3.43;;
10045;SDS011;5063;50.878;4.742;2023-04-10T10:20:15;4.43;;;4.03;;
10045;SDS011;5063;50.878;4.742;2023-04-10T10:22:41;3.67;;;3.37;;
10045;SDS011;5063;50.878;4.742;2023-04-10T10:25:08;4.03;;;3.63;;
10045;SDS011;5063;50.878;4.742;2023-04-10T10:27:38;4.47;;;4.00;;
10045;SDS011;5063;50.878;4.742;2023-04-10T10:30:06;4.43;;;4.03;;
10045;SDS011;5063;50.878;4.742;2023-04-10T10:32:33;4.30;;;3.90;;
10045;SDS011;5063;50.878;4.742;2023-04-10T10:35:00;4.13;;;3.70;;
10045;SDS011;5063;50.878;4.742;2023-04-10T10:37:28;4.40;;;4.00;;
10045;SDS011;5063;50.878;4.742;2023-04-10T10:42:39;4.43;;;4.03;;
10045;SDS011;5063;50.878;4.742;2023-04-10T10:45:29;3.70;;;3.30;;
10045;SDS011;5063;50.878;4.742;2023-04-10T10:48:00;4.30;;;3.90;;
10045;SDS011;5063;50.878;4.742;2023-04-10T10:50:48;4.80;;;4.40;;
10045;SDS011;5063;50.878;4.742;2023-04-10T10:53:31;4.17;;;3.53;;
10045;SDS011;5063;50.878;4.742;2023-04-10T10:58:54;3.55;;;3.22;;
10045;SDS011;5063;50.878;4.742;2023-04-10T11:01:23;3.38;;;3.08;;
10045;SDS011;5063;50.878;4.742;2023-04-10T11:03:49;3.38;;;3.08;;
10045;SDS011;5063;50.878;4.742;2023-04-10T11:06:16;4.07;;;3.45;;
10045;SDS011;5063;50.878;4.742;2023-04-10T11:08:47;3.65;;;3.35;;
10045;SDS011;5063;50.878;4.742;2023-04-10T11:16:42;3.63;;;3.05;;
10045;SDS011;5063;50.878;4.742;2023-04-10T11:19:11;2.85;;;2.60;;
10045;SDS011;5063;50.878;4.742;2023-04-10T11:24:28;3.28;;;2.97;;
10045;SDS011;5063;50.878;4.742;2023-04-10T11:30:30;2.70;;;2.50;;
10045;SDS011;5063;50.878;4.742;2023-04-10T11:32:58;4.73;;;2.90;;
10045;SDS011;5063;50.878;4.742;2023-04-10T11:35:25;3.15;;;2.83;;
10045;SDS011;5063;50.878;4.742;2023-04-10T11:38:15;3.63;;;3.33;;
10045;SDS011;5063;50.878;4.742;2023-04-10T11:40:54;3.58;;;2.60;;
10045;SDS011;5063;50.878;4.742;2023-04-10T11:43:21;2.67;;;2.47;;
10045;SDS011;5063;50.878;4.742;2023-04-10T11:45:47;3.15;;;2.83;;
10045;SDS011;5063;50.878;4.742;2023-04-10T11:48:13;3.10;;;2.75;;
10045;SDS011;5063;50.878;4.742;2023-04-10T11:50:41;3.80;;;2.50;;
10045;SDS011;5063;50.878;4.742;2023-04-10T11:53:20;3.30;;;3.00;;
10045;SDS011;5063;50.878;4.742;2023-04-10T11:55:46;2.75;;;2.55;;
10045;SDS011;5063;50.878;4.742;2023-04-10T11:58:28;2.67;;;2.47;;
10045;SDS011;5063;50.878;4.742;2023-04-10T12:00:55;3.28;;;2.50;;
10045;SDS011;5063;50.878;4.742;2023-04-10T12:03:35;3.27;;;2.83;;
10045;SDS011;5063;50.878;4.742;2023-04-10T12:06:04;2.85;;;2.28;;
10045;SDS011;5063;50.878;4.742;2023-04-10T12:08:32;2.70;;;2.40;;
10045;SDS011;5063;50.878;4.742;2023-04-10T12:10:59;2.85;;;2.65;;
10045;SDS011;5063;50.878;4.742;2023-04-10T12:13:26;3.33;;;2.58;;
10045;SDS011;5063;50.878;4.742;2023-04-10T12:15:52;2.60;;;2.30;;
10045;SDS011;5063;50.878;4.742;2023-04-10T12:18:19;3.08;;;2.80;;
10045;SDS011;5063;50.878;4.742;2023-04-10T12:20:46;3.08;;;2.75;;
10045;SDS011;5063;50.878;4.742;2023-04-10T12:23:12;5.88;;;2.83;;
10045;SDS011;5063;50.878;4.742;2023-04-10T12:25:40;3.95;;;2.50;;
10045;SDS011;5063;50.878;4.742;2023-04-10T12:28:06;4.32;;;2.80;;
10045;SDS011;5063;50.878;4.742;2023-04-10T12:30:32;2.43;;;2.23;;
10045;SDS011;5063;50.878;4.742;2023-04-10T12:32:58;2.63;;;2.42;;
10045;SDS011;5063;50.878;4.742;2023-04-10T12:35:40;3.00;;;2.70;;
10045;SDS011;5063;50.878;4.742;2023-04-10T12:38:06;2.83;;;2.50;;
10045;SDS011;5063;50.878;4.742;2023-04-10T12:40:32;2.70;;;2.50;;
10045;SDS011;5063;50.878;4.742;2023-04-10T12:42:58;2.40;;;2.20;;
10045;SDS011;5063;50.878;4.742;2023-04-10T12:45:43;3.43;;;2.50;;
10045;SDS011;5063;50.878;4.742;2023-04-10T12:48:09;2.70;;;2.30;;
10045;SDS011;5063;50.878;4.742;2023-04-10T12:50:48;2.70;;;2.50;;
10045;SDS011;5063;50.878;4.742;2023-04-10T12:53:13;3.63;;;2.30;;
10045;SDS011;5063;50.878;4.742;2023-04-10T12:55:39;2.77;;;2.57;;
10045;SDS011;5063;50.878;4.742;2023-04-10T12:58:15;2.50;;;2.30;;
10045;SDS011;5063;50.878;4.742;2023-04-10T13:00:44;2.93;;;2.60;;
10045;SDS011;5063;50.878;4.742;2023-04-10T13:03:10;4.37;;;2.83;;
10045;SDS011;5063;50.878;4.742;2023-04-10T13:05:36;2.43;;;2.23;;
10045;SDS011;5063;50.878;4.742;2023-04-10T13:08:02;4.13;;;2.77;;
10045;SDS011;5063;50.878;4.742;2023-04-10T13:10:28;3.50;;;2.37;;
10045;SDS011;5063;50.878;4.742;2023-04-10T13:12:53;5.17;;;2.20;;
10045;SDS011;5063;50.878;4.742;2023-04-10T13:15:19;3.27;;;2.30;;
10045;SDS011;5063;50.878;4.742;2023-04-10T13:17:45;2.40;;;2.20;;
10045;SDS011;5063;50.878;4.742;2023-04-10T13:20:11;2.57;;;2.37;;
10045;SDS011;5063;50.878;4.742;2023-04-10T13:22:37;2.77;;;2.57;;
10045;SDS011;5063;50.878;4.742;2023-04-10T13:25:04;2.40;;;2.20;;
10045;SDS011;5063;50.878;4.742;2023-04-10T13:27:30;2.50;;;2.30;;
10045;SDS011;5063;50.878;4.742;2023-04-10T13:29:56;3.33;;;2.40;;
10045;SDS011;5063;50.878;4.742;2023-04-10T13:32:21;3.30;;;2.83;;
10045;SDS011;5063;50.878;4.742;2023-04-10T13:34:47;2.50;;;2.30;;
10045;SDS011;5063;50.878;4.742;2023-04-10T13:37:13;3.27;;;2.20;;
10045;SDS011;5063;50.878;4.742;2023-04-10T13:39:38;4.67;;;2.57;;
10045;SDS011;5063;50.878;4.742;2023-04-10T13:42:04;2.60;;;2.30;;
10045;SDS011;5063;50.878;4.742;2023-04-10T13:44:30;3.23;;;2.23;;
10045;SDS011;5063;50.878;4.742;2023-04-10T13:46:56;2.60;;;2.40;;
10045;SDS011;5063;50.878;4.742;2023-04-10T13:49:22;2.00;;;1.77;;
10045;SDS011;5063;50.878;4.742;2023-04-10T13:51:48;3.70;;;2.17;;
10045;SDS011;5063;50.878;4.742;2023-04-10T13:54:14;2.37;;;2.00;;
10045;SDS011;5063;50.878;4.742;2023-04-10T13:56:41;2.27;;;2.10;;
10045;SDS011;5063;50.878;4.742;2023-04-10T13:59:08;2.57;;;1.93;;
10045;SDS011;5063;50.878;4.742;2023-04-10T14:01:35;2.20;;;2.00;;
10045;SDS011;5063;50.878;4.742;2023-04-10T14:04:01;1.90;;;1.80;;
10045;SDS011;5063;50.878;4.742;2023-04-10T14:06:27;2.30;;;2.10;;
10045;SDS011;5063;50.878;4.742;2023-04-10T14:08:53;2.07;;;1.87;;
10045;SDS011;5063;50.878;4.742;2023-04-10T14:11:19;1.73;;;1.63;;
10045;SDS011;5063;50.878;4.742;2023-04-10T14:13:45;2.57;;;2.00;;
10045;SDS011;5063;50.878;4.742;2023-04-10T14:16:10;3.93;;;2.13;;
10045;SDS011;5063;50.878;4.742;2023-04-10T14:18:36;3.93;;;2.53;;
10045;SDS011;5063;50.878;4.742;2023-04-10T14:21:02;2.20;;;2.00;;
10045;SDS011;5063;50.878;4.742;2023-04-10T14:23:28;2.63;;;2.33;;
10045;SDS011;5063;50.878;4.742;2023-04-10T14:25:54;3.80;;;2.10;;
10045;SDS011;5063;50.878;4.742;2023-04-10T14:28:20;2.33;;;2.00;;
10045;SDS011;5063;50.878;4.742;2023-04-10T14:30:46;2.23;;;1.93;;
10045;SDS011;5063;50.878;4.742;2023-04-10T14:33:13;3.30;;;2.03;;
10045;SDS011;5063;50.878;4.742;2023-04-10T14:35:39;5.67;;;2.20;;
10045;SDS011;5063;50.878;4.742;2023-04-10T14:38:04;2.10;;;1.97;;
10045;SDS011;5063;50.878;4.742;2023-04-10T14:40:30;2.00;;;1.80;;
10045;SDS011;5063;50.878;4.742;2023-04-10T14:42:56;2.77;;;2.20;;
10045;SDS011;5063;50.878;4.742;2023-04-10T14:45:22;2.47;;;2.10;;
10045;SDS011;5063;50.878;4.742;2023-04-10T14:47:48;2.77;;;2.57;;
10045;SDS011;5063;50.878;4.742;2023-04-10T14:50:13;2.50;;;2.30;;
10045;SDS011;5063;50.878;4.742;2023-04-10T14:52:39;2.60;;;2.20;;
10045;SDS011;5063;50.878;4.742;2023-04-10T14:55:05;2.00;;;1.90;;
10045;SDS011;5063;50.878;4.742;2023-04-10T14:57:31;3.00;;;1.97;;
10045;SDS011;5063;50.878;4.742;2023-04-10T14:59:57;2.10;;;1.90;;
10045;SDS011;5063;50.878;4.742;2023-04-10T15:02:25;4.33;;;2.63;;
10045;SDS011;5063;50.878;4.742;2023-04-10T15:04:51;2.53;;;2.33;;
10045;SDS011;5063;50.878;4.742;2023-04-10T15:07:17;2.63;;;2.43;;
10045;SDS011;5063;50.878;4.742;2023-04-10T15:09:42;3.03;;;2.07;;
10045;SDS011;5063;50.878;4.742;2023-04-10T15:12:09;3.27;;;2.33;;
10045;SDS011;5063;50.878;4.742;2023-04-10T15:14:34;2.47;;;2.17;;
10045;SDS011;5063;50.878;4.742;2023-04-10T15:17:00;4.87;;;2.50;;
10045;SDS011;5063;50.878;4.742;2023-04-10T15:19:26;2.23;;;2.00;;
10045;SDS011;5063;50.878;4.742;2023-04-10T15:21:53;1.90;;;1.80;;
10045;SDS011;5063;50.878;4.742;2023-04-10T15:24:19;4.07;;;2.07;;
10045;SDS011;5063;50.878;4.742;2023-04-10T15:26:45;2.93;;;2.00;;
10045;SDS011;5063;50.878;4.742;2023-04-10T15:29:11;4.23;;;1.87;;
10045;SDS011;5063;50.878;4.742;2023-04-10T15:31:38;2.37;;;2.17;;
10045;SDS011;5063;50.878;4.742;2023-04-10T15:34:04;2.17;;;1.97;;